Terminal Aerodrome Forecast
Issued by NWS Miami, FL

Home | Current Version | Previous Version | Text Only | Print | Product List | Glossary On
Versions: 1 2 3 4 5 6 7 8 9 10 11 12 13 14 15 16 17 18 19 20 21 22 23 24 25 26 27 28 29
000
FTUS42 KMFL 181733
TAFAPF
TAF
KAPF 181733Z 1818/1918 16017KT P6SM BKN035 BKN150
     FM182100 20009KT P6SM SCT020 BKN040 OVC100
     FM190400 19010KT P6SM VCTS SCT025CB OVC040
     FM191000 22007KT P6SM VCSH SCT025 OVC035
     FM191400 25014G21KT P6SM SCT025 BKN050=

USA.gov is the U.S. government's official web portal to all federal, state and local government web resources and services.